sensor_id;sensor_type;location;lat;lon;timestamp;P1;durP1;ratioP1;P2;durP2;ratioP2
35324;SDS011;35135;47.510;19.036;2024-02-16T00:01:41;9.85;;;8.90;;
35324;SDS011;35135;47.510;19.036;2024-02-16T00:04:06;10.00;;;9.00;;
35324;SDS011;35135;47.510;19.036;2024-02-16T00:06:32;9.88;;;8.85;;
35324;SDS011;35135;47.510;19.036;2024-02-16T00:08:59;9.85;;;8.30;;
35324;SDS011;35135;47.510;19.036;2024-02-16T00:11:24;9.52;;;8.63;;
35324;SDS011;35135;47.510;19.036;2024-02-16T00:13:50;10.40;;;9.40;;
35324;SDS011;35135;47.510;19.036;2024-02-16T00:16:16;10.02;;;8.90;;
35324;SDS011;35135;47.510;19.036;2024-02-16T00:18:43;9.88;;;8.70;;
35324;SDS011;35135;47.510;19.036;2024-02-16T00:21:08;9.68;;;8.68;;
35324;SDS011;35135;47.510;19.036;2024-02-16T00:23:34;10.15;;;9.07;;
35324;SDS011;35135;47.510;19.036;2024-02-16T00:26:01;9.45;;;8.55;;
35324;SDS011;35135;47.510;19.036;2024-02-16T00:28:26;9.35;;;8.35;;
35324;SDS011;35135;47.510;19.036;2024-02-16T00:30:52;9.73;;;8.77;;
35324;SDS011;35135;47.510;19.036;2024-02-16T00:33:18;9.50;;;8.50;;
35324;SDS011;35135;47.510;19.036;2024-02-16T00:35:44;9.88;;;8.88;;
35324;SDS011;35135;47.510;19.036;2024-02-16T00:38:12;10.45;;;9.45;;
35324;SDS011;35135;47.510;19.036;2024-02-16T00:40:38;9.00;;;8.10;;
35324;SDS011;35135;47.510;19.036;2024-02-16T00:43:08;10.48;;;9.10;;
35324;SDS011;35135;47.510;19.036;2024-02-16T00:45:34;9.20;;;8.30;;
35324;SDS011;35135;47.510;19.036;2024-02-16T00:48:00;9.27;;;8.38;;
35324;SDS011;35135;47.510;19.036;2024-02-16T00:50:27;10.02;;;8.35;;
35324;SDS011;35135;47.510;19.036;2024-02-16T00:52:52;9.07;;;7.88;;
35324;SDS011;35135;47.510;19.036;2024-02-16T00:55:18;9.18;;;8.30;;
35324;SDS011;35135;47.510;19.036;2024-02-16T00:57:44;9.45;;;8.45;;
35324;SDS011;35135;47.510;19.036;2024-02-16T01:00:09;9.43;;;8.43;;
35324;SDS011;35135;47.510;19.036;2024-02-16T01:02:36;9.25;;;8.32;;
35324;SDS011;35135;47.510;19.036;2024-02-16T01:05:01;9.02;;;8.13;;
35324;SDS011;35135;47.510;19.036;2024-02-16T01:07:28;9.27;;;8.38;;
35324;SDS011;35135;47.510;19.036;2024-02-16T01:09:54;9.00;;;8.10;;
35324;SDS011;35135;47.510;19.036;2024-02-16T01:12:21;8.35;;;7.55;;
35324;SDS011;35135;47.510;19.036;2024-02-16T01:14:47;10.43;;;8.13;;
35324;SDS011;35135;47.510;19.036;2024-02-16T01:17:13;9.18;;;8.05;;
35324;SDS011;35135;47.510;19.036;2024-02-16T01:19:38;8.93;;;8.07;;
35324;SDS011;35135;47.510;19.036;2024-02-16T01:22:05;8.68;;;7.78;;
35324;SDS011;35135;47.510;19.036;2024-02-16T01:24:31;9.23;;;8.43;;
35324;SDS011;35135;47.510;19.036;2024-02-16T01:26:56;9.20;;;8.32;;
35324;SDS011;35135;47.510;19.036;2024-02-16T01:29:23;9.05;;;8.15;;
35324;SDS011;35135;47.510;19.036;2024-02-16T01:31:48;8.65;;;7.72;;
35324;SDS011;35135;47.510;19.036;2024-02-16T01:34:14;9.38;;;8.38;;
35324;SDS011;35135;47.510;19.036;2024-02-16T01:36:40;8.35;;;7.55;;
35324;SDS011;35135;47.510;19.036;2024-02-16T01:39:06;9.00;;;8.10;;
35324;SDS011;35135;47.510;19.036;2024-02-16T01:41:32;9.75;;;8.75;;
35324;SDS011;35135;47.510;19.036;2024-02-16T01:43:58;8.75;;;7.85;;
35324;SDS011;35135;47.510;19.036;2024-02-16T01:46:24;8.80;;;7.90;;
35324;SDS011;35135;47.510;19.036;2024-02-16T01:48:51;8.95;;;7.97;;
35324;SDS011;35135;47.510;19.036;2024-02-16T01:51:18;9.02;;;8.13;;
35324;SDS011;35135;47.510;19.036;2024-02-16T01:53:43;8.45;;;7.57;;
35324;SDS011;35135;47.510;19.036;2024-02-16T01:56:11;10.07;;;7.97;;
35324;SDS011;35135;47.510;19.036;2024-02-16T01:58:36;9.43;;;8.00;;
35324;SDS011;35135;47.510;19.036;2024-02-16T02:01:02;8.73;;;7.68;;
35324;SDS011;35135;47.510;19.036;2024-02-16T02:03:29;9.00;;;8.10;;
35324;SDS011;35135;47.510;19.036;2024-02-16T02:05:54;8.75;;;7.95;;
35324;SDS011;35135;47.510;19.036;2024-02-16T02:08:21;8.57;;;7.78;;
35324;SDS011;35135;47.510;19.036;2024-02-16T02:10:46;8.85;;;7.95;;
35324;SDS011;35135;47.510;19.036;2024-02-16T02:13:12;8.88;;;7.63;;
35324;SDS011;35135;47.510;19.036;2024-02-16T02:15:38;9.48;;;7.85;;
35324;SDS011;35135;47.510;19.036;2024-02-16T02:18:03;8.85;;;8.02;;
35324;SDS011;35135;47.510;19.036;2024-02-16T02:20:29;8.82;;;7.93;;
35324;SDS011;35135;47.510;19.036;2024-02-16T02:22:55;8.95;;;8.05;;
35324;SDS011;35135;47.510;19.036;2024-02-16T02:25:21;8.13;;;7.40;;
35324;SDS011;35135;47.510;19.036;2024-02-16T02:27:47;8.60;;;7.70;;
35324;SDS011;35135;47.510;19.036;2024-02-16T02:30:12;8.30;;;7.50;;
35324;SDS011;35135;47.510;19.036;2024-02-16T02:32:38;8.82;;;8.02;;
35324;SDS011;35135;47.510;19.036;2024-02-16T02:35:04;8.15;;;7.35;;
35324;SDS011;35135;47.510;19.036;2024-02-16T02:37:30;8.95;;;8.05;;
35324;SDS011;35135;47.510;19.036;2024-02-16T02:39:56;9.15;;;8.27;;
35324;SDS011;35135;47.510;19.036;2024-02-16T02:42:22;8.50;;;7.60;;
35324;SDS011;35135;47.510;19.036;2024-02-16T02:44:47;9.30;;;8.40;;
35324;SDS011;35135;47.510;19.036;2024-02-16T02:47:18;8.65;;;7.75;;
35324;SDS011;35135;47.510;19.036;2024-02-16T02:49:43;8.82;;;8.02;;
35324;SDS011;35135;47.510;19.036;2024-02-16T02:52:09;8.88;;;7.97;;
35324;SDS011;35135;47.510;19.036;2024-02-16T02:54:35;9.23;;;8.32;;
35324;SDS011;35135;47.510;19.036;2024-02-16T02:57:01;8.63;;;7.82;;
35324;SDS011;35135;47.510;19.036;2024-02-16T02:59:27;9.63;;;8.70;;
35324;SDS011;35135;47.510;19.036;2024-02-16T03:01:53;9.23;;;8.40;;
35324;SDS011;35135;47.510;19.036;2024-02-16T03:04:19;8.07;;;7.28;;
35324;SDS011;35135;47.510;19.036;2024-02-16T03:06:45;8.63;;;7.82;;
35324;SDS011;35135;47.510;19.036;2024-02-16T03:09:11;8.48;;;7.68;;
35324;SDS011;35135;47.510;19.036;2024-02-16T03:11:39;9.43;;;7.90;;
35324;SDS011;35135;47.510;19.036;2024-02-16T03:14:05;8.18;;;7.38;;
35324;SDS011;35135;47.510;19.036;2024-02-16T03:16:31;8.25;;;7.45;;
35324;SDS011;35135;47.510;19.036;2024-02-16T03:18:57;9.15;;;8.20;;
35324;SDS011;35135;47.510;19.036;2024-02-16T03:21:23;9.00;;;8.10;;
35324;SDS011;35135;47.510;19.036;2024-02-16T03:23:49;8.75;;;7.95;;
35324;SDS011;35135;47.510;19.036;2024-02-16T03:26:15;8.07;;;7.38;;
35324;SDS011;35135;47.510;19.036;2024-02-16T03:28:45;8.57;;;7.78;;
35324;SDS011;35135;47.510;19.036;2024-02-16T03:31:15;8.73;;;7.82;;
35324;SDS011;35135;47.510;19.036;2024-02-16T03:33:45;9.05;;;8.13;;
35324;SDS011;35135;47.510;19.036;2024-02-16T03:36:14;10.05;;;8.40;;
35324;SDS011;35135;47.510;19.036;2024-02-16T03:38:44;8.57;;;7.78;;
35324;SDS011;35135;47.510;19.036;2024-02-16T03:41:14;9.15;;;8.13;;
35324;SDS011;35135;47.510;19.036;2024-02-16T03:43:43;9.18;;;7.70;;
35324;SDS011;35135;47.510;19.036;2024-02-16T03:46:09;9.45;;;8.55;;
35324;SDS011;35135;47.510;19.036;2024-02-16T03:48:35;9.40;;;8.50;;
35324;SDS011;35135;47.510;19.036;2024-02-16T03:51:01;9.20;;;8.30;;
35324;SDS011;35135;47.510;19.036;2024-02-16T03:53:28;9.02;;;8.13;;
35324;SDS011;35135;47.510;19.036;2024-02-16T03:55:54;9.30;;;8.40;;
35324;SDS011;35135;47.510;19.036;2024-02-16T03:58:21;9.23;;;7.93;;
35324;SDS011;35135;47.510;19.036;2024-02-16T04:00:46;9.45;;;8.55;;
35324;SDS011;35135;47.510;19.036;2024-02-16T04:03:14;9.20;;;8.30;;
35324;SDS011;35135;47.510;19.036;2024-02-16T04:05:39;8.82;;;8.02;;
35324;SDS011;35135;47.510;19.036;2024-02-16T04:08:06;8.60;;;7.72;;
35324;SDS011;35135;47.510;19.036;2024-02-16T04:10:35;9.70;;;8.77;;
35324;SDS011;35135;47.510;19.036;2024-02-16T04:13:01;9.27;;;8.23;;
35324;SDS011;35135;47.510;19.036;2024-02-16T04:15:27;9.60;;;8.70;;
35324;SDS011;35135;47.510;19.036;2024-02-16T04:17:53;9.85;;;8.95;;
35324;SDS011;35135;47.510;19.036;2024-02-16T04:20:19;9.52;;;8.68;;
35324;SDS011;35135;47.510;19.036;2024-02-16T04:22:45;9.63;;;8.63;;
35324;SDS011;35135;47.510;19.036;2024-02-16T04:25:10;9.63;;;8.60;;
35324;SDS011;35135;47.510;19.036;2024-02-16T04:27:36;9.60;;;8.70;;
35324;SDS011;35135;47.510;19.036;2024-02-16T04:30:03;8.82;;;8.02;;
35324;SDS011;35135;47.510;19.036;2024-02-16T04:32:30;8.95;;;8.15;;
35324;SDS011;35135;47.510;19.036;2024-02-16T04:34:56;9.40;;;7.97;;
35324;SDS011;35135;47.510;19.036;2024-02-16T04:37:22;9.48;;;8.63;;
35324;SDS011;35135;47.510;19.036;2024-02-16T04:39:48;9.00;;;8.13;;
35324;SDS011;35135;47.510;19.036;2024-02-16T04:42:14;9.35;;;8.45;;
35324;SDS011;35135;47.510;19.036;2024-02-16T04:44:41;9.90;;;9.00;;
35324;SDS011;35135;47.510;19.036;2024-02-16T04:47:07;8.85;;;8.05;;
35324;SDS011;35135;47.510;19.036;2024-02-16T04:49:33;9.63;;;8.73;;
35324;SDS011;35135;47.510;19.036;2024-02-16T04:51:58;9.68;;;8.68;;
35324;SDS011;35135;47.510;19.036;2024-02-16T04:54:24;9.50;;;8.60;;
35324;SDS011;35135;47.510;19.036;2024-02-16T04:56:50;9.18;;;8.27;;
35324;SDS011;35135;47.510;19.036;2024-02-16T04:59:16;10.20;;;8.60;;
35324;SDS011;35135;47.510;19.036;2024-02-16T05:01:45;9.05;;;8.27;;
35324;SDS011;35135;47.510;19.036;2024-02-16T05:04:11;9.23;;;8.40;;
35324;SDS011;35135;47.510;19.036;2024-02-16T05:06:42;9.70;;;8.80;;
35324;SDS011;35135;47.510;19.036;2024-02-16T05:09:08;8.73;;;7.90;;
35324;SDS011;35135;47.510;19.036;2024-02-16T05:11:34;9.23;;;8.32;;
35324;SDS011;35135;47.510;19.036;2024-02-16T05:14:00;9.55;;;8.65;;
35324;SDS011;35135;47.510;19.036;2024-02-16T05:16:26;9.15;;;8.25;;
35324;SDS011;35135;47.510;19.036;2024-02-16T05:18:52;9.63;;;8.73;;
35324;SDS011;35135;47.510;19.036;2024-02-16T05:21:21;9.63;;;8.63;;
35324;SDS011;35135;47.510;19.036;2024-02-16T05:23:47;9.48;;;8.57;;
35324;SDS011;35135;47.510;19.036;2024-02-16T05:26:13;9.52;;;8.63;;
35324;SDS011;35135;47.510;19.036;2024-02-16T05:28:38;9.40;;;8.50;;
35324;SDS011;35135;47.510;19.036;2024-02-16T05:31:14;9.45;;;8.55;;
35324;SDS011;35135;47.510;19.036;2024-02-16T05:33:42;9.23;;;8.32;;
35324;SDS011;35135;47.510;19.036;2024-02-16T05:36:09;9.18;;;8.38;;
35324;SDS011;35135;47.510;19.036;2024-02-16T05:38:35;9.27;;;8.38;;
35324;SDS011;35135;47.510;19.036;2024-02-16T05:41:06;9.65;;;8.27;;
35324;SDS011;35135;47.510;19.036;2024-02-16T05:43:33;9.10;;;8.20;;
35324;SDS011;35135;47.510;19.036;2024-02-16T05:45:59;9.25;;;8.35;;
35324;SDS011;35135;47.510;19.036;2024-02-16T05:48:25;9.80;;;8.43;;
35324;SDS011;35135;47.510;19.036;2024-02-16T05:50:52;8.90;;;8.10;;
35324;SDS011;35135;47.510;19.036;2024-02-16T05:53:21;9.05;;;8.15;;
35324;SDS011;35135;47.510;19.036;2024-02-16T05:55:46;8.40;;;7.55;;
35324;SDS011;35135;47.510;19.036;2024-02-16T05:58:13;15.73;;;8.45;;
35324;SDS011;35135;47.510;19.036;2024-02-16T06:00:39;11.25;;;8.93;;
35324;SDS011;35135;47.510;19.036;2024-02-16T06:03:07;14.32;;;8.82;;
35324;SDS011;35135;47.510;19.036;2024-02-16T06:05:34;11.38;;;8.45;;
35324;SDS011;35135;47.510;19.036;2024-02-16T06:08:00;15.75;;;8.63;;
35324;SDS011;35135;47.510;19.036;2024-02-16T06:10:25;11.25;;;8.55;;
35324;SDS011;35135;47.510;19.036;2024-02-16T06:12:51;10.75;;;7.97;;
35324;SDS011;35135;47.510;19.036;2024-02-16T06:15:17;14.40;;;8.20;;
35324;SDS011;35135;47.510;19.036;2024-02-16T06:17:42;14.20;;;7.95;;
35324;SDS011;35135;47.510;19.036;2024-02-16T06:20:08;15.52;;;9.27;;
35324;SDS011;35135;47.510;19.036;2024-02-16T06:22:35;19.67;;;9.02;;
35324;SDS011;35135;47.510;19.036;2024-02-16T06:25:01;14.80;;;8.30;;
35324;SDS011;35135;47.510;19.036;2024-02-16T06:27:27;15.75;;;9.10;;
35324;SDS011;35135;47.510;19.036;2024-02-16T06:29:53;15.95;;;9.35;;
35324;SDS011;35135;47.510;19.036;2024-02-16T06:32:19;19.27;;;10.00;;
35324;SDS011;35135;47.510;19.036;2024-02-16T06:34:45;15.13;;;8.70;;
35324;SDS011;35135;47.510;19.036;2024-02-16T06:37:11;17.30;;;9.07;;
35324;SDS011;35135;47.510;19.036;2024-02-16T06:39:36;15.30;;;9.15;;
35324;SDS011;35135;47.510;19.036;2024-02-16T06:42:02;14.45;;;9.38;;
35324;SDS011;35135;47.510;19.036;2024-02-16T06:44:28;24.80;;;9.55;;
35324;SDS011;35135;47.510;19.036;2024-02-16T06:46:54;14.35;;;9.57;;
35324;SDS011;35135;47.510;19.036;2024-02-16T06:49:20;15.00;;;9.52;;
35324;SDS011;35135;47.510;19.036;2024-02-16T06:51:45;19.30;;;10.43;;
35324;SDS011;35135;47.510;19.036;2024-02-16T06:54:11;16.67;;;10.57;;
35324;SDS011;35135;47.510;19.036;2024-02-16T06:56:37;12.57;;;9.85;;
35324;SDS011;35135;47.510;19.036;2024-02-16T06:59:03;14.82;;;10.30;;
35324;SDS011;35135;47.510;19.036;2024-02-16T07:01:29;16.20;;;9.75;;
35324;SDS011;35135;47.510;19.036;2024-02-16T07:03:54;14.20;;;9.50;;
35324;SDS011;35135;47.510;19.036;2024-02-16T07:06:20;14.13;;;9.73;;
35324;SDS011;35135;47.510;19.036;2024-02-16T07:08:45;16.45;;;9.82;;
35324;SDS011;35135;47.510;19.036;2024-02-16T07:11:11;16.13;;;10.05;;
35324;SDS011;35135;47.510;19.036;2024-02-16T07:13:38;14.23;;;9.70;;
35324;SDS011;35135;47.510;19.036;2024-02-16T07:16:04;16.00;;;10.27;;
35324;SDS011;35135;47.510;19.036;2024-02-16T07:18:32;17.17;;;9.77;;
35324;SDS011;35135;47.510;19.036;2024-02-16T07:21:01;17.00;;;10.50;;
35324;SDS011;35135;47.510;19.036;2024-02-16T07:23:27;17.38;;;10.60;;
35324;SDS011;35135;47.510;19.036;2024-02-16T07:25:54;17.98;;;10.50;;
35324;SDS011;35135;47.510;19.036;2024-02-16T07:28:21;14.25;;;10.32;;
35324;SDS011;35135;47.510;19.036;2024-02-16T07:30:47;19.25;;;10.80;;
35324;SDS011;35135;47.510;19.036;2024-02-16T07:33:14;14.45;;;9.95;;
35324;SDS011;35135;47.510;19.036;2024-02-16T07:35:40;17.02;;;10.68;;
35324;SDS011;35135;47.510;19.036;2024-02-16T07:38:05;14.88;;;9.85;;
35324;SDS011;35135;47.510;19.036;2024-02-16T07:40:32;15.85;;;10.23;;
35324;SDS011;35135;47.510;19.036;2024-02-16T07:42:57;13.85;;;9.77;;
35324;SDS011;35135;47.510;19.036;2024-02-16T07:45:24;14.90;;;10.18;;
35324;SDS011;35135;47.510;19.036;2024-02-16T07:47:50;11.63;;;9.32;;
35324;SDS011;35135;47.510;19.036;2024-02-16T07:50:19;13.38;;;10.93;;
35324;SDS011;35135;47.510;19.036;2024-02-16T07:52:45;17.17;;;9.85;;
35324;SDS011;35135;47.510;19.036;2024-02-16T07:55:11;14.15;;;10.00;;
35324;SDS011;35135;47.510;19.036;2024-02-16T07:57:37;12.27;;;9.52;;
35324;SDS011;35135;47.510;19.036;2024-02-16T08:00:06;14.40;;;9.95;;
35324;SDS011;35135;47.510;19.036;2024-02-16T08:02:32;12.88;;;9.23;;
35324;SDS011;35135;47.510;19.036;2024-02-16T08:04:58;12.38;;;9.40;;
35324;SDS011;35135;47.510;19.036;2024-02-16T08:07:24;12.00;;;9.27;;
35324;SDS011;35135;47.510;19.036;2024-02-16T08:09:49;16.77;;;10.50;;
35324;SDS011;35135;47.510;19.036;2024-02-16T08:12:15;14.15;;;9.73;;
35324;SDS011;35135;47.510;19.036;2024-02-16T08:14:41;12.20;;;9.25;;
35324;SDS011;35135;47.510;19.036;2024-02-16T08:17:08;13.90;;;9.45;;
35324;SDS011;35135;47.510;19.036;2024-02-16T08:19:34;11.88;;;9.45;;
35324;SDS011;35135;47.510;19.036;2024-02-16T08:22:02;13.02;;;9.40;;
35324;SDS011;35135;47.510;19.036;2024-02-16T08:24:29;12.48;;;9.68;;
35324;SDS011;35135;47.510;19.036;2024-02-16T08:27:01;12.40;;;10.02;;
35324;SDS011;35135;47.510;19.036;2024-02-16T08:29:27;11.65;;;9.80;;
35324;SDS011;35135;47.510;19.036;2024-02-16T08:31:53;11.27;;;8.88;;
35324;SDS011;35135;47.510;19.036;2024-02-16T08:34:19;12.38;;;8.48;;
35324;SDS011;35135;47.510;19.036;2024-02-16T08:36:48;11.98;;;8.90;;
35324;SDS011;35135;47.510;19.036;2024-02-16T08:39:16;12.35;;;9.73;;
35324;SDS011;35135;47.510;19.036;2024-02-16T08:41:42;12.90;;;9.38;;
35324;SDS011;35135;47.510;19.036;2024-02-16T08:44:13;9.85;;;8.68;;
35324;SDS011;35135;47.510;19.036;2024-02-16T08:46:39;11.52;;;9.02;;
35324;SDS011;35135;47.510;19.036;2024-02-16T08:49:05;13.65;;;8.85;;
35324;SDS011;35135;47.510;19.036;2024-02-16T08:51:34;11.50;;;8.65;;
35324;SDS011;35135;47.510;19.036;2024-02-16T08:54:00;11.00;;;8.68;;
35324;SDS011;35135;47.510;19.036;2024-02-16T08:56:27;9.70;;;8.68;;
35324;SDS011;35135;47.510;19.036;2024-02-16T08:58:53;10.23;;;8.48;;
35324;SDS011;35135;47.510;19.036;2024-02-16T09:01:29;10.02;;;8.10;;
35324;SDS011;35135;47.510;19.036;2024-02-16T09:04:02;10.82;;;8.75;;
35324;SDS011;35135;47.510;19.036;2024-02-16T09:06:28;9.88;;;8.73;;
35324;SDS011;35135;47.510;19.036;2024-02-16T09:08:54;9.68;;;8.63;;
35324;SDS011;35135;47.510;19.036;2024-02-16T09:11:20;10.50;;;8.38;;
35324;SDS011;35135;47.510;19.036;2024-02-16T09:13:46;9.35;;;8.35;;
35324;SDS011;35135;47.510;19.036;2024-02-16T09:16:12;9.35;;;8.35;;
35324;SDS011;35135;47.510;19.036;2024-02-16T09:18:38;12.13;;;8.77;;
35324;SDS011;35135;47.510;19.036;2024-02-16T09:21:04;11.57;;;8.23;;
35324;SDS011;35135;47.510;19.036;2024-02-16T09:23:31;9.52;;;7.90;;
35324;SDS011;35135;47.510;19.036;2024-02-16T09:25:59;9.73;;;8.35;;
35324;SDS011;35135;47.510;19.036;2024-02-16T09:28:28;10.18;;;8.45;;
35324;SDS011;35135;47.510;19.036;2024-02-16T09:30:54;9.13;;;7.50;;
35324;SDS011;35135;47.510;19.036;2024-02-16T09:33:21;9.50;;;7.63;;
35324;SDS011;35135;47.510;19.036;2024-02-16T09:35:47;9.18;;;7.18;;
35324;SDS011;35135;47.510;19.036;2024-02-16T09:38:14;9.30;;;7.97;;
35324;SDS011;35135;47.510;19.036;2024-02-16T09:40:41;8.80;;;7.45;;
35324;SDS011;35135;47.510;19.036;2024-02-16T09:43:07;8.45;;;7.65;;
35324;SDS011;35135;47.510;19.036;2024-02-16T09:45:33;8.77;;;7.30;;
35324;SDS011;35135;47.510;19.036;2024-02-16T09:47:59;8.50;;;7.30;;
35324;SDS011;35135;47.510;19.036;2024-02-16T09:50:25;9.40;;;7.07;;
35324;SDS011;35135;47.510;19.036;2024-02-16T09:52:54;8.70;;;7.30;;
35324;SDS011;35135;47.510;19.036;2024-02-16T09:55:21;8.77;;;7.60;;
35324;SDS011;35135;47.510;19.036;2024-02-16T09:57:47;8.05;;;6.75;;
35324;SDS011;35135;47.510;19.036;2024-02-16T10:00:23;7.60;;;6.88;;
35324;SDS011;35135;47.510;19.036;2024-02-16T10:02:48;8.75;;;6.95;;
35324;SDS011;35135;47.510;19.036;2024-02-16T10:05:18;7.70;;;6.93;;
35324;SDS011;35135;47.510;19.036;2024-02-16T10:07:45;8.95;;;6.88;;
35324;SDS011;35135;47.510;19.036;2024-02-16T10:12:47;8.23;;;6.80;;
35324;SDS011;35135;47.510;19.036;2024-02-16T10:15:20;7.47;;;6.30;;
35324;SDS011;35135;47.510;19.036;2024-02-16T10:18:02;8.10;;;6.78;;
35324;SDS011;35135;47.510;19.036;2024-02-16T10:20:29;7.15;;;6.45;;
35324;SDS011;35135;47.510;19.036;2024-02-16T10:23:10;8.95;;;6.80;;
35324;SDS011;35135;47.510;19.036;2024-02-16T10:25:40;7.13;;;6.40;;
35324;SDS011;35135;47.510;19.036;2024-02-16T10:28:09;7.32;;;6.30;;
35324;SDS011;35135;47.510;19.036;2024-02-16T10:30:39;8.55;;;6.57;;
35324;SDS011;35135;47.510;19.036;2024-02-16T10:33:09;7.68;;;6.50;;
35324;SDS011;35135;47.510;19.036;2024-02-16T10:35:39;6.97;;;6.20;;
35324;SDS011;35135;47.510;19.036;2024-02-16T10:38:09;6.70;;;6.07;;
35324;SDS011;35135;47.510;19.036;2024-02-16T10:40:40;7.60;;;6.60;;
35324;SDS011;35135;47.510;19.036;2024-02-16T10:43:06;7.68;;;6.43;;
35324;SDS011;35135;47.510;19.036;2024-02-16T10:45:35;7.50;;;6.38;;
35324;SDS011;35135;47.510;19.036;2024-02-16T10:48:04;7.85;;;6.53;;
35324;SDS011;35135;47.510;19.036;2024-02-16T10:50:32;7.22;;;6.47;;
35324;SDS011;35135;47.510;19.036;2024-02-16T10:53:02;6.65;;;5.75;;
35324;SDS011;35135;47.510;19.036;2024-02-16T10:55:33;7.32;;;6.57;;
35324;SDS011;35135;47.510;19.036;2024-02-16T10:58:00;6.65;;;6.05;;
35324;SDS011;35135;47.510;19.036;2024-02-16T11:00:25;7.65;;;6.22;;
35324;SDS011;35135;47.510;19.036;2024-02-16T11:02:58;6.68;;;5.57;;
35324;SDS011;35135;47.510;19.036;2024-02-16T11:05:39;6.30;;;5.55;;
35324;SDS011;35135;47.510;19.036;2024-02-16T11:08:12;8.32;;;6.63;;
35324;SDS011;35135;47.510;19.036;2024-02-16T11:10:39;8.10;;;7.28;;
35324;SDS011;35135;47.510;19.036;2024-02-16T11:13:05;39.33;;;34.47;;
35324;SDS011;35135;47.510;19.036;2024-02-16T11:15:31;38.75;;;34.97;;
35324;SDS011;35135;47.510;19.036;2024-02-16T11:18:01;36.67;;;32.88;;
35324;SDS011;35135;47.510;19.036;2024-02-16T11:20:28;33.45;;;30.02;;
35324;SDS011;35135;47.510;19.036;2024-02-16T11:23:10;28.83;;;25.73;;
35324;SDS011;35135;47.510;19.036;2024-02-16T11:25:36;30.05;;;27.13;;
35324;SDS011;35135;47.510;19.036;2024-02-16T11:28:03;33.38;;;30.25;;
35324;SDS011;35135;47.510;19.036;2024-02-16T11:30:32;32.92;;;29.42;;
35324;SDS011;35135;47.510;19.036;2024-02-16T11:32:59;33.15;;;29.60;;
35324;SDS011;35135;47.510;19.036;2024-02-16T11:35:25;31.50;;;28.30;;
35324;SDS011;35135;47.510;19.036;2024-02-16T11:37:50;31.98;;;28.50;;
35324;SDS011;35135;47.510;19.036;2024-02-16T11:40:16;31.17;;;28.10;;
35324;SDS011;35135;47.510;19.036;2024-02-16T11:42:42;30.30;;;26.98;;
35324;SDS011;35135;47.510;19.036;2024-02-16T11:45:11;29.02;;;26.00;;
35324;SDS011;35135;47.510;19.036;2024-02-16T11:47:37;30.52;;;27.27;;
35324;SDS011;35135;47.510;19.036;2024-02-16T11:52:30;29.02;;;26.02;;
35324;SDS011;35135;47.510;19.036;2024-02-16T11:54:56;28.65;;;25.48;;
35324;SDS011;35135;47.510;19.036;2024-02-16T11:57:25;27.73;;;24.88;;
35324;SDS011;35135;47.510;19.036;2024-02-16T11:59:51;27.85;;;24.88;;
35324;SDS011;35135;47.510;19.036;2024-02-16T12:02:19;26.42;;;23.73;;
35324;SDS011;35135;47.510;19.036;2024-02-16T12:04:45;25.70;;;23.15;;
35324;SDS011;35135;47.510;19.036;2024-02-16T12:07:12;26.33;;;23.83;;
35324;SDS011;35135;47.510;19.036;2024-02-16T12:09:39;26.38;;;23.60;;
35324;SDS011;35135;47.510;19.036;2024-02-16T12:12:05;25.38;;;22.77;;
35324;SDS011;35135;47.510;19.036;2024-02-16T12:14:31;25.92;;;23.05;;
35324;SDS011;35135;47.510;19.036;2024-02-16T12:16:58;23.77;;;21.17;;
35324;SDS011;35135;47.510;19.036;2024-02-16T12:19:24;23.65;;;21.35;;
35324;SDS011;35135;47.510;19.036;2024-02-16T12:21:54;23.05;;;20.55;;
35324;SDS011;35135;47.510;19.036;2024-02-16T12:24:22;23.47;;;21.07;;
35324;SDS011;35135;47.510;19.036;2024-02-16T12:26:48;21.95;;;19.67;;
35324;SDS011;35135;47.510;19.036;2024-02-16T12:29:14;21.77;;;19.67;;
35324;SDS011;35135;47.510;19.036;2024-02-16T12:31:41;21.65;;;19.35;;
35324;SDS011;35135;47.510;19.036;2024-02-16T12:34:09;20.83;;;18.73;;
35324;SDS011;35135;47.510;19.036;2024-02-16T12:36:36;20.35;;;18.02;;
35324;SDS011;35135;47.510;19.036;2024-02-16T12:39:05;20.65;;;17.75;;
35324;SDS011;35135;47.510;19.036;2024-02-16T12:41:32;19.75;;;17.63;;
35324;SDS011;35135;47.510;19.036;2024-02-16T12:43:58;18.30;;;16.40;;
35324;SDS011;35135;47.510;19.036;2024-02-16T12:46:24;18.63;;;16.73;;
35324;SDS011;35135;47.510;19.036;2024-02-16T12:48:50;18.70;;;16.90;;
35324;SDS011;35135;47.510;19.036;2024-02-16T12:51:17;18.95;;;16.80;;
35324;SDS011;35135;47.510;19.036;2024-02-16T12:53:44;20.50;;;16.67;;
35324;SDS011;35135;47.510;19.036;2024-02-16T12:56:09;17.88;;;16.02;;
35324;SDS011;35135;47.510;19.036;2024-02-16T12:58:36;17.42;;;15.60;;
35324;SDS011;35135;47.510;19.036;2024-02-16T13:01:02;17.58;;;15.55;;
35324;SDS011;35135;47.510;19.036;2024-02-16T13:03:31;17.55;;;15.38;;
35324;SDS011;35135;47.510;19.036;2024-02-16T13:06:01;16.90;;;15.10;;
35324;SDS011;35135;47.510;19.036;2024-02-16T13:08:27;16.95;;;15.15;;
35324;SDS011;35135;47.510;19.036;2024-02-16T13:10:54;18.75;;;14.80;;
35324;SDS011;35135;47.510;19.036;2024-02-16T13:13:20;15.95;;;14.35;;
35324;SDS011;35135;47.510;19.036;2024-02-16T13:15:46;14.55;;;13.10;;
35324;SDS011;35135;47.510;19.036;2024-02-16T13:18:12;15.00;;;13.43;;
35324;SDS011;35135;47.510;19.036;2024-02-16T13:20:39;15.90;;;14.02;;
35324;SDS011;35135;47.510;19.036;2024-02-16T13:23:05;14.93;;;13.32;;
35324;SDS011;35135;47.510;19.036;2024-02-16T13:25:30;15.18;;;13.57;;
35324;SDS011;35135;47.510;19.036;2024-02-16T13:27:56;13.90;;;12.25;;
35324;SDS011;35135;47.510;19.036;2024-02-16T13:30:21;14.63;;;13.23;;
35324;SDS011;35135;47.510;19.036;2024-02-16T13:32:47;13.38;;;12.02;;
35324;SDS011;35135;47.510;19.036;2024-02-16T13:35:13;13.85;;;12.35;;
35324;SDS011;35135;47.510;19.036;2024-02-16T13:37:39;12.57;;;11.23;;
35324;SDS011;35135;47.510;19.036;2024-02-16T13:40:06;12.77;;;11.32;;
35324;SDS011;35135;47.510;19.036;2024-02-16T13:42:35;12.13;;;10.93;;
35324;SDS011;35135;47.510;19.036;2024-02-16T13:45:02;11.35;;;10.20;;
35324;SDS011;35135;47.510;19.036;2024-02-16T13:47:28;11.65;;;10.07;;
35324;SDS011;35135;47.510;19.036;2024-02-16T13:49:53;11.90;;;10.65;;
35324;SDS011;35135;47.510;19.036;2024-02-16T13:52:21;11.73;;;10.50;;
35324;SDS011;35135;47.510;19.036;2024-02-16T13:54:47;11.43;;;9.77;;
35324;SDS011;35135;47.510;19.036;2024-02-16T13:57:13;12.18;;;10.35;;
35324;SDS011;35135;47.510;19.036;2024-02-16T13:59:39;10.80;;;9.73;;
35324;SDS011;35135;47.510;19.036;2024-02-16T14:02:06;10.88;;;9.77;;
35324;SDS011;35135;47.510;19.036;2024-02-16T14:04:33;11.55;;;8.95;;
35324;SDS011;35135;47.510;19.036;2024-02-16T14:06:59;10.75;;;9.70;;
35324;SDS011;35135;47.510;19.036;2024-02-16T14:09:25;11.45;;;9.30;;
35324;SDS011;35135;47.510;19.036;2024-02-16T14:11:51;10.15;;;9.05;;
35324;SDS011;35135;47.510;19.036;2024-02-16T14:14:19;11.07;;;9.13;;
35324;SDS011;35135;47.510;19.036;2024-02-16T14:16:44;9.82;;;8.82;;
35324;SDS011;35135;47.510;19.036;2024-02-16T14:19:10;11.00;;;9.02;;
35324;SDS011;35135;47.510;19.036;2024-02-16T14:21:36;10.20;;;9.10;;
35324;SDS011;35135;47.510;19.036;2024-02-16T14:24:01;9.82;;;8.77;;
35324;SDS011;35135;47.510;19.036;2024-02-16T14:26:27;10.25;;;8.75;;
35324;SDS011;35135;47.510;19.036;2024-02-16T14:28:54;8.75;;;7.95;;